sensor_id;sensor_type;location;lat;lon;timestamp;P1;durP1;ratioP1;P2;durP2;ratioP2
16662;SDS011;8445;51.270;9.434;2023-01-09T00:01:41;2.47;;;2.23;;
16662;SDS011;8445;51.270;9.434;2023-01-09T00:04:08;4.13;;;2.27;;
16662;SDS011;8445;51.270;9.434;2023-01-09T00:06:34;3.80;;;3.33;;
16662;SDS011;8445;51.270;9.434;2023-01-09T00:09:00;3.13;;;2.40;;
16662;SDS011;8445;51.270;9.434;2023-01-09T00:11:26;3.23;;;2.80;;
16662;SDS011;8445;51.270;9.434;2023-01-09T00:13:52;5.47;;;2.60;;
16662;SDS011;8445;51.270;9.434;2023-01-09T00:16:17;4.80;;;2.67;;
16662;SDS011;8445;51.270;9.434;2023-01-09T00:18:43;3.00;;;2.40;;
16662;SDS011;8445;51.270;9.434;2023-01-09T00:21:09;3.90;;;2.90;;
16662;SDS011;8445;51.270;9.434;2023-01-09T00:23:36;3.10;;;2.80;;
16662;SDS011;8445;51.270;9.434;2023-01-09T00:26:12;2.53;;;2.33;;
16662;SDS011;8445;51.270;9.434;2023-01-09T00:28:41;4.97;;;2.90;;
16662;SDS011;8445;51.270;9.434;2023-01-09T00:31:06;2.53;;;2.33;;
16662;SDS011;8445;51.270;9.434;2023-01-09T00:33:34;2.60;;;2.40;;
16662;SDS011;8445;51.270;9.434;2023-01-09T00:36:02;2.40;;;2.20;;
16662;SDS011;8445;51.270;9.434;2023-01-09T00:38:28;2.17;;;1.70;;
16662;SDS011;8445;51.270;9.434;2023-01-09T00:40:54;2.40;;;1.80;;
16662;SDS011;8445;51.270;9.434;2023-01-09T00:43:19;3.00;;;2.00;;
16662;SDS011;8445;51.270;9.434;2023-01-09T00:45:46;1.83;;;1.73;;
16662;SDS011;8445;51.270;9.434;2023-01-09T00:48:13;1.93;;;1.77;;
16662;SDS011;8445;51.270;9.434;2023-01-09T00:50:49;4.03;;;2.10;;
16662;SDS011;8445;51.270;9.434;2023-01-09T00:53:16;1.93;;;1.83;;
16662;SDS011;8445;51.270;9.434;2023-01-09T00:55:44;3.30;;;2.10;;
16662;SDS011;8445;51.270;9.434;2023-01-09T00:58:09;2.67;;;1.63;;
16662;SDS011;8445;51.270;9.434;2023-01-09T01:00:35;3.17;;;2.50;;
16662;SDS011;8445;51.270;9.434;2023-01-09T01:03:00;3.93;;;1.90;;
16662;SDS011;8445;51.270;9.434;2023-01-09T01:05:26;4.67;;;2.00;;
16662;SDS011;8445;51.270;9.434;2023-01-09T01:08:11;2.23;;;1.90;;
16662;SDS011;8445;51.270;9.434;2023-01-09T01:10:38;5.13;;;1.73;;
16662;SDS011;8445;51.270;9.434;2023-01-09T01:13:03;2.20;;;2.00;;
16662;SDS011;8445;51.270;9.434;2023-01-09T01:15:29;2.73;;;2.20;;
16662;SDS011;8445;51.270;9.434;2023-01-09T01:17:55;2.80;;;2.00;;
16662;SDS011;8445;51.270;9.434;2023-01-09T01:20:20;1.97;;;1.87;;
16662;SDS011;8445;51.270;9.434;2023-01-09T01:22:46;2.20;;;2.00;;
16662;SDS011;8445;51.270;9.434;2023-01-09T01:25:12;2.27;;;2.07;;
16662;SDS011;8445;51.270;9.434;2023-01-09T01:27:40;3.93;;;2.00;;
16662;SDS011;8445;51.270;9.434;2023-01-09T01:30:07;3.47;;;2.30;;
16662;SDS011;8445;51.270;9.434;2023-01-09T01:32:35;4.93;;;2.00;;
16662;SDS011;8445;51.270;9.434;2023-01-09T01:35:00;3.10;;;2.50;;
16662;SDS011;8445;51.270;9.434;2023-01-09T01:37:26;2.83;;;2.27;;
16662;SDS011;8445;51.270;9.434;2023-01-09T01:39:52;2.23;;;2.03;;
16662;SDS011;8445;51.270;9.434;2023-01-09T01:42:17;3.80;;;2.30;;
16662;SDS011;8445;51.270;9.434;2023-01-09T01:47:39;2.07;;;1.90;;
16662;SDS011;8445;51.270;9.434;2023-01-09T01:50:18;5.40;;;2.43;;
16662;SDS011;8445;51.270;9.434;2023-01-09T01:52:55;3.20;;;2.03;;
16662;SDS011;8445;51.270;9.434;2023-01-09T01:55:26;2.20;;;1.97;;
16662;SDS011;8445;51.270;9.434;2023-01-09T01:57:53;2.40;;;2.20;;
16662;SDS011;8445;51.270;9.434;2023-01-09T02:00:26;2.43;;;2.20;;
16662;SDS011;8445;51.270;9.434;2023-01-09T02:02:55;2.33;;;1.80;;
16662;SDS011;8445;51.270;9.434;2023-01-09T02:05:22;2.40;;;1.90;;
16662;SDS011;8445;51.270;9.434;2023-01-09T02:07:47;3.03;;;1.87;;
16662;SDS011;8445;51.270;9.434;2023-01-09T02:10:13;2.40;;;1.80;;
16662;SDS011;8445;51.270;9.434;2023-01-09T02:12:39;3.30;;;1.90;;
16662;SDS011;8445;51.270;9.434;2023-01-09T02:26:02;1.60;;;1.50;;
16662;SDS011;8445;51.270;9.434;2023-01-09T02:31:48;1.60;;;1.50;;
16662;SDS011;8445;51.270;9.434;2023-01-09T02:42:43;1.50;;;1.40;;
16662;SDS011;8445;51.270;9.434;2023-01-09T02:45:11;2.00;;;1.80;;
16662;SDS011;8445;51.270;9.434;2023-01-09T02:47:38;2.60;;;1.70;;
16662;SDS011;8445;51.270;9.434;2023-01-09T02:50:07;2.27;;;1.60;;
16662;SDS011;8445;51.270;9.434;2023-01-09T02:52:46;3.60;;;2.10;;
16662;SDS011;8445;51.270;9.434;2023-01-09T02:55:17;3.13;;;1.60;;
16662;SDS011;8445;51.270;9.434;2023-01-09T02:58:07;2.37;;;1.60;;
16662;SDS011;8445;51.270;9.434;2023-01-09T03:00:45;2.93;;;1.80;;
16662;SDS011;8445;51.270;9.434;2023-01-09T03:03:18;1.57;;;1.47;;
16662;SDS011;8445;51.270;9.434;2023-01-09T03:05:46;1.83;;;1.73;;
16662;SDS011;8445;51.270;9.434;2023-01-09T03:08:22;5.00;;;1.90;;
16662;SDS011;8445;51.270;9.434;2023-01-09T03:10:59;1.63;;;1.53;;
16662;SDS011;8445;51.270;9.434;2023-01-09T03:13:43;2.07;;;1.90;;
16662;SDS011;8445;51.270;9.434;2023-01-09T03:16:30;2.00;;;1.80;;
16662;SDS011;8445;51.270;9.434;2023-01-09T03:18:59;2.03;;;1.70;;
16662;SDS011;8445;51.270;9.434;2023-01-09T03:21:28;2.23;;;1.63;;
16662;SDS011;8445;51.270;9.434;2023-01-09T03:23:56;1.90;;;1.80;;
16662;SDS011;8445;51.270;9.434;2023-01-09T03:26:23;1.30;;;1.27;;
16662;SDS011;8445;51.270;9.434;2023-01-09T03:28:49;2.10;;;1.90;;
16662;SDS011;8445;51.270;9.434;2023-01-09T03:31:16;1.50;;;1.40;;
16662;SDS011;8445;51.270;9.434;2023-01-09T03:33:42;1.60;;;1.50;;
16662;SDS011;8445;51.270;9.434;2023-01-09T03:36:08;1.70;;;1.60;;
16662;SDS011;8445;51.270;9.434;2023-01-09T03:38:34;2.83;;;1.70;;
16662;SDS011;8445;51.270;9.434;2023-01-09T03:41:00;1.67;;;1.57;;
16662;SDS011;8445;51.270;9.434;2023-01-09T03:43:25;1.67;;;1.57;;
16662;SDS011;8445;51.270;9.434;2023-01-09T03:45:51;2.10;;;1.57;;
16662;SDS011;8445;51.270;9.434;2023-01-09T03:48:16;1.60;;;1.50;;
16662;SDS011;8445;51.270;9.434;2023-01-09T03:50:42;2.50;;;1.60;;
16662;SDS011;8445;51.270;9.434;2023-01-09T03:53:10;2.00;;;1.60;;
16662;SDS011;8445;51.270;9.434;2023-01-09T03:55:37;2.67;;;2.07;;
16662;SDS011;8445;51.270;9.434;2023-01-09T03:58:16;2.83;;;1.90;;
16662;SDS011;8445;51.270;9.434;2023-01-09T04:00:42;2.63;;;1.50;;
16662;SDS011;8445;51.270;9.434;2023-01-09T04:03:10;1.77;;;1.67;;
16662;SDS011;8445;51.270;9.434;2023-01-09T04:05:36;2.77;;;1.67;;
16662;SDS011;8445;51.270;9.434;2023-01-09T04:08:01;4.10;;;1.80;;
16662;SDS011;8445;51.270;9.434;2023-01-09T04:10:27;1.90;;;1.70;;
16662;SDS011;8445;51.270;9.434;2023-01-09T04:12:52;1.50;;;1.30;;
16662;SDS011;8445;51.270;9.434;2023-01-09T04:15:18;1.57;;;1.47;;
16662;SDS011;8445;51.270;9.434;2023-01-09T04:17:43;1.00;;;1.00;;
16662;SDS011;8445;51.270;9.434;2023-01-09T04:20:09;2.00;;;1.00;;
16662;SDS011;8445;51.270;9.434;2023-01-09T04:22:35;0.90;;;0.90;;
16662;SDS011;8445;51.270;9.434;2023-01-09T04:25:01;0.70;;;0.70;;
16662;SDS011;8445;51.270;9.434;2023-01-09T04:27:26;0.77;;;0.77;;
16662;SDS011;8445;51.270;9.434;2023-01-09T04:29:52;1.10;;;0.80;;
16662;SDS011;8445;51.270;9.434;2023-01-09T04:32:17;0.70;;;0.70;;
16662;SDS011;8445;51.270;9.434;2023-01-09T04:34:43;1.10;;;1.00;;
16662;SDS011;8445;51.270;9.434;2023-01-09T04:37:08;0.83;;;0.83;;
16662;SDS011;8445;51.270;9.434;2023-01-09T04:39:34;1.10;;;1.00;;
16662;SDS011;8445;51.270;9.434;2023-01-09T04:42:01;0.90;;;0.90;;
16662;SDS011;8445;51.270;9.434;2023-01-09T04:44:27;0.70;;;0.70;;
16662;SDS011;8445;51.270;9.434;2023-01-09T04:46:53;0.80;;;0.80;;
16662;SDS011;8445;51.270;9.434;2023-01-09T04:49:20;1.10;;;1.00;;
16662;SDS011;8445;51.270;9.434;2023-01-09T04:51:46;0.80;;;0.80;;
16662;SDS011;8445;51.270;9.434;2023-01-09T04:54:12;0.70;;;0.70;;
16662;SDS011;8445;51.270;9.434;2023-01-09T04:56:38;0.80;;;0.80;;
16662;SDS011;8445;51.270;9.434;2023-01-09T04:59:04;0.80;;;0.80;;
16662;SDS011;8445;51.270;9.434;2023-01-09T05:01:30;0.70;;;0.70;;
16662;SDS011;8445;51.270;9.434;2023-01-09T05:03:55;0.90;;;0.90;;
16662;SDS011;8445;51.270;9.434;2023-01-09T05:06:21;0.80;;;0.80;;
16662;SDS011;8445;51.270;9.434;2023-01-09T05:08:47;0.73;;;0.70;;
16662;SDS011;8445;51.270;9.434;2023-01-09T05:11:12;1.90;;;0.90;;
16662;SDS011;8445;51.270;9.434;2023-01-09T05:13:38;0.73;;;0.73;;
16662;SDS011;8445;51.270;9.434;2023-01-09T05:16:03;0.67;;;0.67;;
16662;SDS011;8445;51.270;9.434;2023-01-09T05:18:29;0.87;;;0.87;;
16662;SDS011;8445;51.270;9.434;2023-01-09T05:20:54;0.60;;;0.60;;
16662;SDS011;8445;51.270;9.434;2023-01-09T05:23:19;0.90;;;0.90;;
16662;SDS011;8445;51.270;9.434;2023-01-09T05:25:45;0.97;;;0.83;;
16662;SDS011;8445;51.270;9.434;2023-01-09T05:28:10;1.30;;;1.20;;
16662;SDS011;8445;51.270;9.434;2023-01-09T05:30:36;0.90;;;0.90;;
16662;SDS011;8445;51.270;9.434;2023-01-09T05:33:01;2.53;;;1.40;;
16662;SDS011;8445;51.270;9.434;2023-01-09T05:35:27;1.10;;;0.83;;
16662;SDS011;8445;51.270;9.434;2023-01-09T05:37:52;1.43;;;1.00;;
16662;SDS011;8445;51.270;9.434;2023-01-09T05:40:18;0.97;;;0.97;;
16662;SDS011;8445;51.270;9.434;2023-01-09T05:42:43;1.20;;;1.10;;
16662;SDS011;8445;51.270;9.434;2023-01-09T05:45:09;1.37;;;1.27;;
16662;SDS011;8445;51.270;9.434;2023-01-09T05:47:35;6.37;;;1.00;;
16662;SDS011;8445;51.270;9.434;2023-01-09T05:50:01;1.13;;;0.90;;
16662;SDS011;8445;51.270;9.434;2023-01-09T05:52:26;0.97;;;0.97;;
16662;SDS011;8445;51.270;9.434;2023-01-09T05:54:52;1.07;;;1.00;;
16662;SDS011;8445;51.270;9.434;2023-01-09T05:57:17;3.30;;;1.20;;
16662;SDS011;8445;51.270;9.434;2023-01-09T05:59:42;2.33;;;1.20;;
16662;SDS011;8445;51.270;9.434;2023-01-09T06:02:08;1.37;;;1.10;;
16662;SDS011;8445;51.270;9.434;2023-01-09T06:04:33;1.37;;;1.20;;
16662;SDS011;8445;51.270;9.434;2023-01-09T06:06:59;1.70;;;1.17;;
16662;SDS011;8445;51.270;9.434;2023-01-09T06:09:25;1.43;;;1.20;;
16662;SDS011;8445;51.270;9.434;2023-01-09T06:11:50;1.87;;;1.37;;
16662;SDS011;8445;51.270;9.434;2023-01-09T06:14:16;2.27;;;1.40;;
16662;SDS011;8445;51.270;9.434;2023-01-09T06:16:41;1.87;;;1.50;;
16662;SDS011;8445;51.270;9.434;2023-01-09T06:19:07;4.63;;;1.83;;
16662;SDS011;8445;51.270;9.434;2023-01-09T06:21:33;1.63;;;1.53;;
16662;SDS011;8445;51.270;9.434;2023-01-09T06:23:58;5.23;;;1.77;;
16662;SDS011;8445;51.270;9.434;2023-01-09T06:26:24;1.97;;;1.83;;
16662;SDS011;8445;51.270;9.434;2023-01-09T06:28:50;2.83;;;2.20;;
16662;SDS011;8445;51.270;9.434;2023-01-09T06:31:19;3.87;;;1.70;;
16662;SDS011;8445;51.270;9.434;2023-01-09T06:33:48;2.27;;;2.07;;
16662;SDS011;8445;51.270;9.434;2023-01-09T06:36:14;2.90;;;2.17;;
16662;SDS011;8445;51.270;9.434;2023-01-09T06:38:39;2.30;;;2.10;;
16662;SDS011;8445;51.270;9.434;2023-01-09T06:41:05;2.77;;;2.27;;
16662;SDS011;8445;51.270;9.434;2023-01-09T06:43:30;3.30;;;1.97;;
16662;SDS011;8445;51.270;9.434;2023-01-09T06:45:56;2.57;;;1.90;;
16662;SDS011;8445;51.270;9.434;2023-01-09T06:48:21;2.07;;;1.70;;
16662;SDS011;8445;51.270;9.434;2023-01-09T06:50:49;1.90;;;1.50;;
16662;SDS011;8445;51.270;9.434;2023-01-09T06:53:15;4.43;;;1.47;;
16662;SDS011;8445;51.270;9.434;2023-01-09T06:55:41;1.27;;;1.20;;
16662;SDS011;8445;51.270;9.434;2023-01-09T06:58:06;1.40;;;1.30;;
16662;SDS011;8445;51.270;9.434;2023-01-09T07:00:31;5.73;;;1.60;;
16662;SDS011;8445;51.270;9.434;2023-01-09T07:02:57;3.30;;;1.10;;
16662;SDS011;8445;51.270;9.434;2023-01-09T07:05:22;1.23;;;1.20;;
16662;SDS011;8445;51.270;9.434;2023-01-09T07:07:48;2.70;;;1.20;;
16662;SDS011;8445;51.270;9.434;2023-01-09T07:10:14;1.80;;;1.30;;
16662;SDS011;8445;51.270;9.434;2023-01-09T07:12:39;1.40;;;1.30;;
16662;SDS011;8445;51.270;9.434;2023-01-09T07:15:05;3.03;;;1.40;;
16662;SDS011;8445;51.270;9.434;2023-01-09T07:17:31;1.47;;;1.37;;
16662;SDS011;8445;51.270;9.434;2023-01-09T07:19:57;1.83;;;1.57;;
16662;SDS011;8445;51.270;9.434;2023-01-09T07:22:23;2.47;;;1.60;;
16662;SDS011;8445;51.270;9.434;2023-01-09T07:24:48;2.17;;;1.40;;
16662;SDS011;8445;51.270;9.434;2023-01-09T07:27:14;1.97;;;1.60;;
16662;SDS011;8445;51.270;9.434;2023-01-09T07:29:39;2.17;;;1.43;;
16662;SDS011;8445;51.270;9.434;2023-01-09T07:32:05;1.37;;;1.27;;
16662;SDS011;8445;51.270;9.434;2023-01-09T07:34:30;2.60;;;1.63;;
16662;SDS011;8445;51.270;9.434;2023-01-09T07:36:56;3.27;;;1.27;;
16662;SDS011;8445;51.270;9.434;2023-01-09T07:39:21;3.50;;;1.37;;
16662;SDS011;8445;51.270;9.434;2023-01-09T07:41:47;1.60;;;1.50;;
16662;SDS011;8445;51.270;9.434;2023-01-09T07:44:13;1.70;;;1.60;;
16662;SDS011;8445;51.270;9.434;2023-01-09T07:46:39;2.73;;;1.47;;
16662;SDS011;8445;51.270;9.434;2023-01-09T07:49:04;1.90;;;1.70;;
16662;SDS011;8445;51.270;9.434;2023-01-09T07:51:30;2.17;;;1.50;;
16662;SDS011;8445;51.270;9.434;2023-01-09T07:53:56;3.27;;;1.40;;
16662;SDS011;8445;51.270;9.434;2023-01-09T07:56:22;1.37;;;1.27;;
16662;SDS011;8445;51.270;9.434;2023-01-09T07:58:47;1.50;;;1.40;;
16662;SDS011;8445;51.270;9.434;2023-01-09T08:01:12;3.17;;;1.40;;
16662;SDS011;8445;51.270;9.434;2023-01-09T08:03:38;2.13;;;1.43;;
16662;SDS011;8445;51.270;9.434;2023-01-09T08:06:03;1.60;;;1.43;;
16662;SDS011;8445;51.270;9.434;2023-01-09T08:08:29;1.33;;;1.33;;
16662;SDS011;8445;51.270;9.434;2023-01-09T08:10:54;1.40;;;1.30;;
16662;SDS011;8445;51.270;9.434;2023-01-09T08:13:20;1.57;;;1.40;;
16662;SDS011;8445;51.270;9.434;2023-01-09T08:15:45;1.73;;;1.30;;
16662;SDS011;8445;51.270;9.434;2023-01-09T08:18:11;1.70;;;1.50;;
16662;SDS011;8445;51.270;9.434;2023-01-09T08:20:36;1.40;;;1.00;;
16662;SDS011;8445;51.270;9.434;2023-01-09T08:23:02;1.10;;;1.10;;
16662;SDS011;8445;51.270;9.434;2023-01-09T08:25:27;2.07;;;1.30;;
16662;SDS011;8445;51.270;9.434;2023-01-09T08:27:53;1.53;;;1.23;;
16662;SDS011;8445;51.270;9.434;2023-01-09T08:30:18;1.20;;;1.10;;
16662;SDS011;8445;51.270;9.434;2023-01-09T08:32:47;1.30;;;1.20;;
16662;SDS011;8445;51.270;9.434;2023-01-09T08:35:14;1.00;;;1.00;;
16662;SDS011;8445;51.270;9.434;2023-01-09T08:37:42;1.20;;;1.20;;
16662;SDS011;8445;51.270;9.434;2023-01-09T08:40:11;1.97;;;1.50;;
16662;SDS011;8445;51.270;9.434;2023-01-09T08:42:38;2.33;;;1.70;;
16662;SDS011;8445;51.270;9.434;2023-01-09T08:45:22;2.40;;;1.30;;
16662;SDS011;8445;51.270;9.434;2023-01-09T08:48:06;1.17;;;1.07;;
16662;SDS011;8445;51.270;9.434;2023-01-09T08:50:32;3.33;;;1.43;;
16662;SDS011;8445;51.270;9.434;2023-01-09T08:52:57;1.73;;;1.20;;
16662;SDS011;8445;51.270;9.434;2023-01-09T08:55:23;4.07;;;1.53;;
16662;SDS011;8445;51.270;9.434;2023-01-09T08:57:52;2.00;;;1.30;;
16662;SDS011;8445;51.270;9.434;2023-01-09T09:00:19;2.00;;;1.40;;
16662;SDS011;8445;51.270;9.434;2023-01-09T09:02:50;0.80;;;0.80;;
16662;SDS011;8445;51.270;9.434;2023-01-09T09:05:17;0.93;;;0.93;;
16662;SDS011;8445;51.270;9.434;2023-01-09T09:07:42;1.00;;;1.00;;
16662;SDS011;8445;51.270;9.434;2023-01-09T09:10:08;1.70;;;1.00;;
16662;SDS011;8445;51.270;9.434;2023-01-09T09:12:34;2.30;;;0.97;;
16662;SDS011;8445;51.270;9.434;2023-01-09T09:14:59;4.20;;;1.30;;
16662;SDS011;8445;51.270;9.434;2023-01-09T09:17:37;1.50;;;1.10;;
16662;SDS011;8445;51.270;9.434;2023-01-09T09:20:04;2.40;;;1.60;;
16662;SDS011;8445;51.270;9.434;2023-01-09T09:22:31;2.07;;;1.33;;
16662;SDS011;8445;51.270;9.434;2023-01-09T09:24:56;1.47;;;1.00;;
16662;SDS011;8445;51.270;9.434;2023-01-09T09:27:22;2.33;;;1.15;;
16662;SDS011;8445;51.270;9.434;2023-01-09T09:29:47;1.47;;;1.30;;
16662;SDS011;8445;51.270;9.434;2023-01-09T09:32:13;1.80;;;1.17;;
16662;SDS011;8445;51.270;9.434;2023-01-09T09:34:38;2.77;;;1.67;;
16662;SDS011;8445;51.270;9.434;2023-01-09T09:37:04;1.50;;;1.40;;
16662;SDS011;8445;51.270;9.434;2023-01-09T09:39:29;3.57;;;1.47;;
16662;SDS011;8445;51.270;9.434;2023-01-09T09:45:00;1.73;;;1.50;;
16662;SDS011;8445;51.270;9.434;2023-01-09T09:53:31;3.30;;;2.40;;
16662;SDS011;8445;51.270;9.434;2023-01-09T09:56:02;2.57;;;1.57;;
16662;SDS011;8445;51.270;9.434;2023-01-09T09:58:34;3.63;;;1.50;;
16662;SDS011;8445;51.270;9.434;2023-01-09T10:01:03;3.42;;;1.50;;
16662;SDS011;8445;51.270;9.434;2023-01-09T10:09:19;2.30;;;1.70;;
16662;SDS011;8445;51.270;9.434;2023-01-09T10:12:09;4.60;;;1.50;;
16662;SDS011;8445;51.270;9.434;2023-01-09T10:14:47;3.07;;;1.23;;
16662;SDS011;8445;51.270;9.434;2023-01-09T10:23:07;3.30;;;1.30;;
16662;SDS011;8445;51.270;9.434;2023-01-09T10:40:24;2.70;;;1.35;;
16662;SDS011;8445;51.270;9.434;2023-01-09T10:42:59;1.77;;;1.08;;
16662;SDS011;8445;51.270;9.434;2023-01-09T10:45:37;2.88;;;0.93;;
16662;SDS011;8445;51.270;9.434;2023-01-09T10:48:25;1.75;;;1.17;;
16662;SDS011;8445;51.270;9.434;2023-01-09T10:50:56;2.65;;;1.05;;
16662;SDS011;8445;51.270;9.434;2023-01-09T10:53:35;1.05;;;0.98;;
16662;SDS011;8445;51.270;9.434;2023-01-09T10:56:22;1.40;;;1.08;;
16662;SDS011;8445;51.270;9.434;2023-01-09T10:58:50;2.85;;;0.90;;
16662;SDS011;8445;51.270;9.434;2023-01-09T11:01:27;1.73;;;1.05;;
16662;SDS011;8445;51.270;9.434;2023-01-09T11:03:56;2.42;;;1.13;;
16662;SDS011;8445;51.270;9.434;2023-01-09T11:06:24;2.33;;;1.20;;
16662;SDS011;8445;51.270;9.434;2023-01-09T11:08:56;3.22;;;1.15;;
16662;SDS011;8445;51.270;9.434;2023-01-09T11:11:31;2.97;;;1.13;;
16662;SDS011;8445;51.270;9.434;2023-01-09T11:14:15;2.10;;;1.27;;
16662;SDS011;8445;51.270;9.434;2023-01-09T11:16:55;2.25;;;0.90;;
16662;SDS011;8445;51.270;9.434;2023-01-09T11:19:22;1.48;;;1.17;;
16662;SDS011;8445;51.270;9.434;2023-01-09T11:21:48;1.85;;;0.93;;
16662;SDS011;8445;51.270;9.434;2023-01-09T11:26:43;1.83;;;0.80;;
16662;SDS011;8445;51.270;9.434;2023-01-09T11:29:10;2.55;;;1.00;;
16662;SDS011;8445;51.270;9.434;2023-01-09T11:31:40;2.03;;;1.20;;
16662;SDS011;8445;51.270;9.434;2023-01-09T11:34:15;1.80;;;1.15;;
16662;SDS011;8445;51.270;9.434;2023-01-09T11:36:43;1.73;;;0.90;;
16662;SDS011;8445;51.270;9.434;2023-01-09T11:39:28;1.33;;;1.02;;
16662;SDS011;8445;51.270;9.434;2023-01-09T11:41:57;1.23;;;0.90;;
16662;SDS011;8445;51.270;9.434;2023-01-09T11:44:26;4.30;;;1.45;;
16662;SDS011;8445;51.270;9.434;2023-01-09T11:46:52;2.67;;;1.33;;
16662;SDS011;8445;51.270;9.434;2023-01-09T11:49:28;0.70;;;0.70;;
16662;SDS011;8445;51.270;9.434;2023-01-09T11:54:36;1.60;;;0.82;;
16662;SDS011;8445;51.270;9.434;2023-01-09T11:57:09;1.33;;;0.90;;
16662;SDS011;8445;51.270;9.434;2023-01-09T11:59:36;1.13;;;0.93;;
16662;SDS011;8445;51.270;9.434;2023-01-09T12:07:47;1.98;;;1.20;;
16662;SDS011;8445;51.270;9.434;2023-01-09T12:13:33;0.73;;;0.73;;
16662;SDS011;8445;51.270;9.434;2023-01-09T12:18:42;2.13;;;0.88;;
16662;SDS011;8445;51.270;9.434;2023-01-09T12:21:23;1.63;;;1.30;;
16662;SDS011;8445;51.270;9.434;2023-01-09T12:27:25;1.33;;;1.00;;
16662;SDS011;8445;51.270;9.434;2023-01-09T12:38:39;2.50;;;1.63;;
16662;SDS011;8445;51.270;9.434;2023-01-09T12:49:36;2.45;;;0.90;;
16662;SDS011;8445;51.270;9.434;2023-01-09T12:54:45;1.17;;;0.95;;
16662;SDS011;8445;51.270;9.434;2023-01-09T12:59:56;2.40;;;1.20;;
16662;SDS011;8445;51.270;9.434;2023-01-09T13:02:50;1.00;;;0.90;;
16662;SDS011;8445;51.270;9.434;2023-01-09T13:05:20;2.33;;;0.93;;
16662;SDS011;8445;51.270;9.434;2023-01-09T13:07:53;1.33;;;0.80;;
16662;SDS011;8445;51.270;9.434;2023-01-09T13:10:44;1.00;;;0.75;;
16662;SDS011;8445;51.270;9.434;2023-01-09T13:15:53;1.13;;;0.90;;
16662;SDS011;8445;51.270;9.434;2023-01-09T13:20:59;1.10;;;0.93;;
16662;SDS011;8445;51.270;9.434;2023-01-09T13:26:01;2.80;;;1.10;;
16662;SDS011;8445;51.270;9.434;2023-01-09T13:33:50;1.17;;;0.87;;
16662;SDS011;8445;51.270;9.434;2023-01-09T13:36:22;2.17;;;1.30;;
16662;SDS011;8445;51.270;9.434;2023-01-09T13:39:17;0.93;;;0.87;;
16662;SDS011;8445;51.270;9.434;2023-01-09T13:41:45;1.90;;;1.23;;
16662;SDS011;8445;51.270;9.434;2023-01-09T13:44:34;1.58;;;0.90;;
16662;SDS011;8445;51.270;9.434;2023-01-09T13:47:00;3.70;;;1.33;;
16662;SDS011;8445;51.270;9.434;2023-01-09T13:59:43;2.87;;;1.20;;
16662;SDS011;8445;51.270;9.434;2023-01-09T14:04:57;4.27;;;2.30;;
16662;SDS011;8445;51.270;9.434;2023-01-09T14:07:27;2.95;;;1.23;;
16662;SDS011;8445;51.270;9.434;2023-01-09T14:09:57;2.88;;;1.73;;
16662;SDS011;8445;51.270;9.434;2023-01-09T14:12:25;3.28;;;1.30;;
16662;SDS011;8445;51.270;9.434;2023-01-09T14:14:56;2.00;;;0.90;;
16662;SDS011;8445;51.270;9.434;2023-01-09T14:20:03;1.23;;;1.07;;
16662;SDS011;8445;51.270;9.434;2023-01-09T14:22:35;1.47;;;0.87;;
16662;SDS011;8445;51.270;9.434;2023-01-09T14:25:08;1.70;;;1.10;;
16662;SDS011;8445;51.270;9.434;2023-01-09T14:38:48;1.70;;;1.07;;
16662;SDS011;8445;51.270;9.434;2023-01-09T14:41:18;1.10;;;1.00;;
16662;SDS011;8445;51.270;9.434;2023-01-09T14:49:42;2.63;;;2.20;;
16662;SDS011;8445;51.270;9.434;2023-01-09T14:55:03;4.23;;;1.90;;
16662;SDS011;8445;51.270;9.434;2023-01-09T14:57:40;2.77;;;1.97;;
16662;SDS011;8445;51.270;9.434;2023-01-09T15:02:37;4.87;;;1.93;;
16662;SDS011;8445;51.270;9.434;2023-01-09T15:05:15;3.87;;;2.00;;
16662;SDS011;8445;51.270;9.434;2023-01-09T15:07:53;5.17;;;2.10;;
16662;SDS011;8445;51.270;9.434;2023-01-09T15:10:24;2.63;;;2.10;;
16662;SDS011;8445;51.270;9.434;2023-01-09T15:12:54;3.73;;;2.43;;
16662;SDS011;8445;51.270;9.434;2023-01-09T15:15:22;5.03;;;2.77;;
16662;SDS011;8445;51.270;9.434;2023-01-09T15:17:58;4.13;;;2.43;;
16662;SDS011;8445;51.270;9.434;2023-01-09T15:20:28;4.37;;;3.10;;
16662;SDS011;8445;51.270;9.434;2023-01-09T15:23:05;5.07;;;2.80;;
16662;SDS011;8445;51.270;9.434;2023-01-09T15:25:44;5.37;;;2.63;;
16662;SDS011;8445;51.270;9.434;2023-01-09T15:30:55;2.97;;;2.10;;
16662;SDS011;8445;51.270;9.434;2023-01-09T15:33:28;2.73;;;1.90;;
16662;SDS011;8445;51.270;9.434;2023-01-09T15:35:56;4.17;;;2.53;;
16662;SDS011;8445;51.270;9.434;2023-01-09T15:38:28;3.53;;;2.47;;
16662;SDS011;8445;51.270;9.434;2023-01-09T15:40:59;4.47;;;2.27;;
16662;SDS011;8445;51.270;9.434;2023-01-09T15:43:37;4.00;;;2.23;;
16662;SDS011;8445;51.270;9.434;2023-01-09T15:46:10;3.20;;;2.40;;
16662;SDS011;8445;51.270;9.434;2023-01-09T15:48:43;4.37;;;2.40;;
16662;SDS011;8445;51.270;9.434;2023-01-09T15:51:15;4.63;;;2.87;;
16662;SDS011;8445;51.270;9.434;2023-01-09T15:53:45;3.83;;;2.53;;
16662;SDS011;8445;51.270;9.434;2023-01-09T15:56:16;3.97;;;2.20;;
16662;SDS011;8445;51.270;9.434;2023-01-09T15:58:46;5.27;;;2.57;;
16662;SDS011;8445;51.270;9.434;2023-01-09T16:04:07;7.47;;;2.97;;
16662;SDS011;8445;51.270;9.434;2023-01-09T16:06:56;5.03;;;3.00;;
16662;SDS011;8445;51.270;9.434;2023-01-09T16:09:22;5.27;;;3.07;;
16662;SDS011;8445;51.270;9.434;2023-01-09T16:11:52;5.17;;;3.23;;
16662;SDS011;8445;51.270;9.434;2023-01-09T16:14:21;4.00;;;2.93;;
16662;SDS011;8445;51.270;9.434;2023-01-09T16:16:50;5.03;;;3.60;;
16662;SDS011;8445;51.270;9.434;2023-01-09T16:21:56;5.30;;;3.23;;
16662;SDS011;8445;51.270;9.434;2023-01-09T16:24:24;8.07;;;4.60;;
16662;SDS011;8445;51.270;9.434;2023-01-09T16:27:26;5.07;;;3.20;;
16662;SDS011;8445;51.270;9.434;2023-01-09T16:29:56;3.00;;;2.70;;
16662;SDS011;8445;51.270;9.434;2023-01-09T16:32:28;4.10;;;3.33;;
16662;SDS011;8445;51.270;9.434;2023-01-09T16:35:03;7.33;;;3.50;;
16662;SDS011;8445;51.270;9.434;2023-01-09T16:37:35;4.77;;;3.73;;
16662;SDS011;8445;51.270;9.434;2023-01-09T16:42:32;4.63;;;3.60;;
16662;SDS011;8445;51.270;9.434;2023-01-09T16:45:22;3.73;;;3.40;;
16662;SDS011;8445;51.270;9.434;2023-01-09T16:47:54;6.17;;;3.47;;
16662;SDS011;8445;51.270;9.434;2023-01-09T16:50:21;4.93;;;3.33;;
16662;SDS011;8445;51.270;9.434;2023-01-09T16:52:52;5.97;;;3.43;;
16662;SDS011;8445;51.270;9.434;2023-01-09T16:55:22;8.33;;;2.60;;
16662;SDS011;8445;51.270;9.434;2023-01-09T16:57:51;5.17;;;3.00;;
16662;SDS011;8445;51.270;9.434;2023-01-09T17:00:21;5.83;;;3.13;;
16662;SDS011;8445;51.270;9.434;2023-01-09T17:02:47;4.20;;;2.80;;
16662;SDS011;8445;51.270;9.434;2023-01-09T17:05:15;4.47;;;3.00;;
16662;SDS011;8445;51.270;9.434;2023-01-09T17:07:44;3.60;;;2.93;;
16662;SDS011;8445;51.270;9.434;2023-01-09T17:10:20;4.43;;;3.40;;
16662;SDS011;8445;51.270;9.434;2023-01-09T17:12:51;4.80;;;3.27;;
16662;SDS011;8445;51.270;9.434;2023-01-09T17:15:21;4.73;;;3.43;;
16662;SDS011;8445;51.270;9.434;2023-01-09T17:17:49;3.97;;;3.23;;
16662;SDS011;8445;51.270;9.434;2023-01-09T17:20:19;4.90;;;3.33;;
16662;SDS011;8445;51.270;9.434;2023-01-09T17:22:50;4.07;;;3.30;;
16662;SDS011;8445;51.270;9.434;2023-01-09T17:25:19;4.40;;;3.43;;
16662;SDS011;8445;51.270;9.434;2023-01-09T17:28:04;4.13;;;3.50;;
16662;SDS011;8445;51.270;9.434;2023-01-09T17:30:56;4.93;;;3.73;;
16662;SDS011;8445;51.270;9.434;2023-01-09T17:33:37;3.43;;;2.63;;
16662;SDS011;8445;51.270;9.434;2023-01-09T17:36:25;3.73;;;2.80;;
16662;SDS011;8445;51.270;9.434;2023-01-09T17:39:02;4.90;;;3.43;;
16662;SDS011;8445;51.270;9.434;2023-01-09T17:41:29;4.40;;;3.40;;
16662;SDS011;8445;51.270;9.434;2023-01-09T17:43:59;3.50;;;3.20;;
16662;SDS011;8445;51.270;9.434;2023-01-09T17:46:36;4.10;;;3.30;;
16662;SDS011;8445;51.270;9.434;2023-01-09T17:49:13;3.43;;;3.03;;
16662;SDS011;8445;51.270;9.434;2023-01-09T17:51:44;5.03;;;3.30;;
16662;SDS011;8445;51.270;9.434;2023-01-09T17:54:13;4.17;;;3.17;;
16662;SDS011;8445;51.270;9.434;2023-01-09T17:56:42;5.87;;;3.10;;
16662;SDS011;8445;51.270;9.434;2023-01-09T17:59:15;3.83;;;3.33;;